sensor_id;sensor_type;location;lat;lon;timestamp;temperature;humidity
19224;DHT22;9746;47.180;9.776;2022-08-19T05:14:08;17.50;99.90
19224;DHT22;9746;47.180;9.776;2022-08-19T05:16:36;17.40;99.90
19224;DHT22;9746;47.180;9.776;2022-08-19T05:19:04;17.40;99.90
19224;DHT22;9746;47.180;9.776;2022-08-19T05:21:48;17.30;99.90
19224;DHT22;9746;47.180;9.776;2022-08-19T05:24:33;17.30;99.90
19224;DHT22;9746;47.180;9.776;2022-08-19T05:27:02;17.50;99.90
19224;DHT22;9746;47.180;9.776;2022-08-19T05:29:33;17.50;99.90
19224;DHT22;9746;47.180;9.776;2022-08-19T05:32:02;17.50;99.90
19224;DHT22;9746;47.180;9.776;2022-08-19T05:34:34;17.50;99.90
19224;DHT22;9746;47.180;9.776;2022-08-19T05:37:04;17.50;99.90
19224;DHT22;9746;47.180;9.776;2022-08-19T05:39:35;17.60;99.90
19224;DHT22;9746;47.180;9.776;2022-08-19T05:42:06;17.60;99.90
19224;DHT22;9746;47.180;9.776;2022-08-19T05:44:37;17.70;99.90
19224;DHT22;9746;47.180;9.776;2022-08-19T05:47:06;17.70;99.90
19224;DHT22;9746;47.180;9.776;2022-08-19T05:49:35;17.70;99.90
19224;DHT22;9746;47.180;9.776;2022-08-19T05:52:04;17.70;99.90
19224;DHT22;9746;47.180;9.776;2022-08-19T05:54:33;17.70;99.90
19224;DHT22;9746;47.180;9.776;2022-08-19T05:57:02;17.80;99.90
19224;DHT22;9746;47.180;9.776;2022-08-19T05:59:29;17.80;99.90
19224;DHT22;9746;47.180;9.776;2022-08-19T06:01:58;17.80;99.90
19224;DHT22;9746;47.180;9.776;2022-08-19T06:04:26;17.80;99.90
19224;DHT22;9746;47.180;9.776;2022-08-19T06:06:55;17.70;99.90
19224;DHT22;9746;47.180;9.776;2022-08-19T06:09:23;17.60;99.90
19224;DHT22;9746;47.180;9.776;2022-08-19T06:11:52;17.60;99.90
19224;DHT22;9746;47.180;9.776;2022-08-19T06:14:22;17.60;99.90
19224;DHT22;9746;47.180;9.776;2022-08-19T06:16:50;17.60;99.90
19224;DHT22;9746;47.180;9.776;2022-08-19T06:19:21;17.70;99.90
19224;DHT22;9746;47.180;9.776;2022-08-19T06:21:51;17.70;99.90
19224;DHT22;9746;47.180;9.776;2022-08-19T06:24:20;17.80;99.90
19224;DHT22;9746;47.180;9.776;2022-08-19T06:26:50;17.80;99.90
19224;DHT22;9746;47.180;9.776;2022-08-19T06:29:21;17.90;99.90
19224;DHT22;9746;47.180;9.776;2022-08-19T06:31:52;17.90;99.90
19224;DHT22;9746;47.180;9.776;2022-08-19T06:34:22;17.90;99.90
19224;DHT22;9746;47.180;9.776;2022-08-19T06:36:51;17.90;99.90
19224;DHT22;9746;47.180;9.776;2022-08-19T06:39:20;17.90;99.90
19224;DHT22;9746;47.180;9.776;2022-08-19T06:41:51;18.10;99.90
19224;DHT22;9746;47.180;9.776;2022-08-19T06:44:20;18.00;99.90
19224;DHT22;9746;47.180;9.776;2022-08-19T06:46:47;18.00;99.90
19224;DHT22;9746;47.180;9.776;2022-08-19T06:49:16;18.10;99.90
19224;DHT22;9746;47.180;9.776;2022-08-19T06:51:47;18.10;99.90
19224;DHT22;9746;47.180;9.776;2022-08-19T06:54:16;18.10;99.90
19224;DHT22;9746;47.180;9.776;2022-08-19T06:56:43;18.20;99.90
19224;DHT22;9746;47.180;9.776;2022-08-19T06:59:13;18.20;99.90
19224;DHT22;9746;47.180;9.776;2022-08-19T07:01:42;18.20;99.90
19224;DHT22;9746;47.180;9.776;2022-08-19T07:04:12;18.20;99.90
19224;DHT22;9746;47.180;9.776;2022-08-19T07:06:39;18.20;99.90
19224;DHT22;9746;47.180;9.776;2022-08-19T07:09:10;18.30;99.90
19224;DHT22;9746;47.180;9.776;2022-08-19T07:11:38;18.30;99.90
19224;DHT22;9746;47.180;9.776;2022-08-19T07:14:08;18.40;99.90
19224;DHT22;9746;47.180;9.776;2022-08-19T07:16:35;18.40;99.90
19224;DHT22;9746;47.180;9.776;2022-08-19T07:19:03;18.50;99.90
19224;DHT22;9746;47.180;9.776;2022-08-19T07:21:30;18.40;99.90
19224;DHT22;9746;47.180;9.776;2022-08-19T07:23:59;18.30;99.90
19224;DHT22;9746;47.180;9.776;2022-08-19T07:26:31;18.30;99.90
19224;DHT22;9746;47.180;9.776;2022-08-19T07:28:59;18.20;99.90
19224;DHT22;9746;47.180;9.776;2022-08-19T07:31:28;18.20;99.90
19224;DHT22;9746;47.180;9.776;2022-08-19T07:33:56;18.10;99.90
19224;DHT22;9746;47.180;9.776;2022-08-19T07:36:26;18.10;99.90
19224;DHT22;9746;47.180;9.776;2022-08-19T07:38:54;18.10;99.90
19224;DHT22;9746;47.180;9.776;2022-08-19T07:41:24;18.00;99.90
19224;DHT22;9746;47.180;9.776;2022-08-19T07:43:53;17.90;99.90
19224;DHT22;9746;47.180;9.776;2022-08-19T07:46:22;17.80;99.90
19224;DHT22;9746;47.180;9.776;2022-08-19T07:48:50;17.90;99.90
19224;DHT22;9746;47.180;9.776;2022-08-19T07:51:20;17.90;99.90
19224;DHT22;9746;47.180;9.776;2022-08-19T07:53:49;17.90;99.90
19224;DHT22;9746;47.180;9.776;2022-08-19T07:56:18;17.80;99.90
19224;DHT22;9746;47.180;9.776;2022-08-19T07:58:49;17.80;99.90
19224;DHT22;9746;47.180;9.776;2022-08-19T08:01:21;17.90;99.90
19224;DHT22;9746;47.180;9.776;2022-08-19T08:03:50;17.90;99.90
19224;DHT22;9746;47.180;9.776;2022-08-19T08:06:35;18.00;99.90
19224;DHT22;9746;47.180;9.776;2022-08-19T08:09:22;18.10;99.90
19224;DHT22;9746;47.180;9.776;2022-08-19T08:11:54;18.10;99.90
19224;DHT22;9746;47.180;9.776;2022-08-19T08:14:25;18.00;99.90
19224;DHT22;9746;47.180;9.776;2022-08-19T08:16:55;18.00;99.90
19224;DHT22;9746;47.180;9.776;2022-08-19T08:19:24;18.00;99.90
19224;DHT22;9746;47.180;9.776;2022-08-19T08:21:54;18.10;99.90
19224;DHT22;9746;47.180;9.776;2022-08-19T08:24:22;18.10;99.90
19224;DHT22;9746;47.180;9.776;2022-08-19T08:26:50;18.20;99.90
19224;DHT22;9746;47.180;9.776;2022-08-19T08:29:17;18.30;99.90
19224;DHT22;9746;47.180;9.776;2022-08-19T08:31:46;18.30;99.90
19224;DHT22;9746;47.180;9.776;2022-08-19T08:34:15;18.30;99.90
19224;DHT22;9746;47.180;9.776;2022-08-19T08:36:44;18.40;99.90
19224;DHT22;9746;47.180;9.776;2022-08-19T08:39:15;18.50;99.90
19224;DHT22;9746;47.180;9.776;2022-08-19T08:41:49;18.50;99.90
19224;DHT22;9746;47.180;9.776;2022-08-19T08:44:23;18.60;99.90
19224;DHT22;9746;47.180;9.776;2022-08-19T08:46:57;18.60;99.90
19224;DHT22;9746;47.180;9.776;2022-08-19T08:49:31;18.60;99.90
19224;DHT22;9746;47.180;9.776;2022-08-19T08:52:04;18.60;99.90
19224;DHT22;9746;47.180;9.776;2022-08-19T08:54:35;18.60;99.90
19224;DHT22;9746;47.180;9.776;2022-08-19T08:57:10;18.60;99.90
19224;DHT22;9746;47.180;9.776;2022-08-19T08:59:40;18.60;99.90
19224;DHT22;9746;47.180;9.776;2022-08-19T09:02:09;18.60;99.90
19224;DHT22;9746;47.180;9.776;2022-08-19T09:04:38;18.60;99.90
19224;DHT22;9746;47.180;9.776;2022-08-19T09:07:24;18.70;99.90
19224;DHT22;9746;47.180;9.776;2022-08-19T09:10:02;18.60;99.90
19224;DHT22;9746;47.180;9.776;2022-08-19T09:12:36;18.80;99.90
19224;DHT22;9746;47.180;9.776;2022-08-19T09:15:08;18.90;99.90
19224;DHT22;9746;47.180;9.776;2022-08-19T09:17:36;19.00;99.90
19224;DHT22;9746;47.180;9.776;2022-08-19T09:20:14;19.20;99.90
19224;DHT22;9746;47.180;9.776;2022-08-19T09:22:43;19.20;99.90
19224;DHT22;9746;47.180;9.776;2022-08-19T09:25:14;19.30;99.90
19224;DHT22;9746;47.180;9.776;2022-08-19T09:27:43;19.40;99.90
19224;DHT22;9746;47.180;9.776;2022-08-19T09:30:14;19.20;99.90
19224;DHT22;9746;47.180;9.776;2022-08-19T09:32:42;19.10;99.90
19224;DHT22;9746;47.180;9.776;2022-08-19T09:35:12;19.10;99.90
19224;DHT22;9746;47.180;9.776;2022-08-19T09:37:40;19.00;99.90
19224;DHT22;9746;47.180;9.776;2022-08-19T09:40:09;18.80;99.90
19224;DHT22;9746;47.180;9.776;2022-08-19T09:42:37;18.70;99.90
19224;DHT22;9746;47.180;9.776;2022-08-19T09:45:06;18.60;99.90
19224;DHT22;9746;47.180;9.776;2022-08-19T09:47:34;18.60;99.90
19224;DHT22;9746;47.180;9.776;2022-08-19T09:50:05;18.50;99.90
19224;DHT22;9746;47.180;9.776;2022-08-19T09:52:34;18.50;99.90
19224;DHT22;9746;47.180;9.776;2022-08-19T09:55:03;18.20;99.90
19224;DHT22;9746;47.180;9.776;2022-08-19T09:57:31;18.10;99.90
19224;DHT22;9746;47.180;9.776;2022-08-19T09:59:59;18.00;99.90
19224;DHT22;9746;47.180;9.776;2022-08-19T10:02:26;17.90;99.90
19224;DHT22;9746;47.180;9.776;2022-08-19T10:04:54;17.80;99.90
19224;DHT22;9746;47.180;9.776;2022-08-19T10:07:40;17.60;99.90
19224;DHT22;9746;47.180;9.776;2022-08-19T10:10:08;17.60;99.90
19224;DHT22;9746;47.180;9.776;2022-08-19T10:12:36;17.60;99.90
19224;DHT22;9746;47.180;9.776;2022-08-19T10:15:05;17.70;99.90
19224;DHT22;9746;47.180;9.776;2022-08-19T10:17:34;17.70;99.90
19224;DHT22;9746;47.180;9.776;2022-08-19T10:20:02;17.80;99.90
19224;DHT22;9746;47.180;9.776;2022-08-19T10:22:30;17.70;99.90
19224;DHT22;9746;47.180;9.776;2022-08-19T10:25:01;17.70;99.90
19224;DHT22;9746;47.180;9.776;2022-08-19T10:27:28;17.70;99.90
19224;DHT22;9746;47.180;9.776;2022-08-19T10:29:56;17.70;99.90
19224;DHT22;9746;47.180;9.776;2022-08-19T10:32:24;17.70;99.90
19224;DHT22;9746;47.180;9.776;2022-08-19T10:34:52;17.70;99.90
19224;DHT22;9746;47.180;9.776;2022-08-19T10:37:19;17.80;99.90
19224;DHT22;9746;47.180;9.776;2022-08-19T10:39:47;17.80;99.90
19224;DHT22;9746;47.180;9.776;2022-08-19T10:42:16;17.90;99.90
19224;DHT22;9746;47.180;9.776;2022-08-19T10:44:44;18.00;99.90
19224;DHT22;9746;47.180;9.776;2022-08-19T10:47:14;18.10;99.90
19224;DHT22;9746;47.180;9.776;2022-08-19T10:49:43;18.10;99.90
19224;DHT22;9746;47.180;9.776;2022-08-19T10:52:28;18.20;99.90
19224;DHT22;9746;47.180;9.776;2022-08-19T10:55:05;18.20;99.90
19224;DHT22;9746;47.180;9.776;2022-08-19T10:57:55;18.20;99.90
19224;DHT22;9746;47.180;9.776;2022-08-19T11:00:24;18.20;99.90
19224;DHT22;9746;47.180;9.776;2022-08-19T11:02:52;18.20;99.90
19224;DHT22;9746;47.180;9.776;2022-08-19T11:05:21;18.20;99.90
19224;DHT22;9746;47.180;9.776;2022-08-19T11:07:49;18.20;99.90
19224;DHT22;9746;47.180;9.776;2022-08-19T11:10:17;18.20;99.90
19224;DHT22;9746;47.180;9.776;2022-08-19T11:12:45;18.20;99.90
19224;DHT22;9746;47.180;9.776;2022-08-19T11:15:15;18.20;99.90
19224;DHT22;9746;47.180;9.776;2022-08-19T11:17:42;18.20;99.90
19224;DHT22;9746;47.180;9.776;2022-08-19T11:20:11;18.20;99.90
19224;DHT22;9746;47.180;9.776;2022-08-19T11:22:40;18.20;99.90
19224;DHT22;9746;47.180;9.776;2022-08-19T11:25:09;18.30;99.90
19224;DHT22;9746;47.180;9.776;2022-08-19T11:27:38;18.30;99.90
19224;DHT22;9746;47.180;9.776;2022-08-19T11:30:09;18.30;99.90
19224;DHT22;9746;47.180;9.776;2022-08-19T11:32:39;18.30;99.90
19224;DHT22;9746;47.180;9.776;2022-08-19T11:35:07;18.20;99.90
19224;DHT22;9746;47.180;9.776;2022-08-19T11:37:36;18.10;99.90
19224;DHT22;9746;47.180;9.776;2022-08-19T11:40:07;18.00;99.90
19224;DHT22;9746;47.180;9.776;2022-08-19T11:42:36;17.90;99.90
19224;DHT22;9746;47.180;9.776;2022-08-19T11:45:22;17.90;99.90
19224;DHT22;9746;47.180;9.776;2022-08-19T11:47:51;17.80;99.90
19224;DHT22;9746;47.180;9.776;2022-08-19T11:50:19;17.70;99.90
19224;DHT22;9746;47.180;9.776;2022-08-19T11:52:47;17.60;99.90
19224;DHT22;9746;47.180;9.776;2022-08-19T11:55:15;17.60;99.90
19224;DHT22;9746;47.180;9.776;2022-08-19T11:57:43;17.70;99.90
19224;DHT22;9746;47.180;9.776;2022-08-19T12:00:12;17.80;99.90
19224;DHT22;9746;47.180;9.776;2022-08-19T12:02:40;17.80;99.90
19224;DHT22;9746;47.180;9.776;2022-08-19T12:05:10;17.90;99.90
19224;DHT22;9746;47.180;9.776;2022-08-19T12:07:38;17.90;99.90
19224;DHT22;9746;47.180;9.776;2022-08-19T12:10:07;17.90;99.90
19224;DHT22;9746;47.180;9.776;2022-08-19T12:12:35;17.80;99.90
19224;DHT22;9746;47.180;9.776;2022-08-19T12:15:09;17.80;99.90
19224;DHT22;9746;47.180;9.776;2022-08-19T12:17:38;17.70;99.90
19224;DHT22;9746;47.180;9.776;2022-08-19T12:20:07;17.70;99.90
19224;DHT22;9746;47.180;9.776;2022-08-19T12:22:37;17.80;99.90
19224;DHT22;9746;47.180;9.776;2022-08-19T12:25:07;17.90;99.90
19224;DHT22;9746;47.180;9.776;2022-08-19T12:27:35;17.90;99.90
19224;DHT22;9746;47.180;9.776;2022-08-19T12:30:04;18.00;99.90
19224;DHT22;9746;47.180;9.776;2022-08-19T12:32:32;17.90;99.90
19224;DHT22;9746;47.180;9.776;2022-08-19T12:35:00;17.90;99.90
19224;DHT22;9746;47.180;9.776;2022-08-19T12:37:28;18.00;99.90
19224;DHT22;9746;47.180;9.776;2022-08-19T12:39:59;18.00;99.90
19224;DHT22;9746;47.180;9.776;2022-08-19T12:42:26;18.10;99.90
19224;DHT22;9746;47.180;9.776;2022-08-19T12:44:56;18.10;99.90
19224;DHT22;9746;47.180;9.776;2022-08-19T12:47:23;18.10;99.90
19224;DHT22;9746;47.180;9.776;2022-08-19T12:49:52;18.20;99.90
19224;DHT22;9746;47.180;9.776;2022-08-19T12:52:22;18.20;99.90
19224;DHT22;9746;47.180;9.776;2022-08-19T12:54:50;18.10;99.90
19224;DHT22;9746;47.180;9.776;2022-08-19T12:57:19;18.00;99.90
19224;DHT22;9746;47.180;9.776;2022-08-19T12:59:47;18.00;99.90
19224;DHT22;9746;47.180;9.776;2022-08-19T13:02:14;18.00;99.90
19224;DHT22;9746;47.180;9.776;2022-08-19T13:04:41;18.00;99.90
19224;DHT22;9746;47.180;9.776;2022-08-19T13:07:09;18.00;99.90
19224;DHT22;9746;47.180;9.776;2022-08-19T13:09:37;18.10;99.90
19224;DHT22;9746;47.180;9.776;2022-08-19T13:12:07;18.10;99.90
19224;DHT22;9746;47.180;9.776;2022-08-19T13:14:40;18.00;99.90
19224;DHT22;9746;47.180;9.776;2022-08-19T13:17:07;18.00;99.90
19224;DHT22;9746;47.180;9.776;2022-08-19T13:19:36;18.00;99.90
19224;DHT22;9746;47.180;9.776;2022-08-19T13:22:06;18.00;99.90
19224;DHT22;9746;47.180;9.776;2022-08-19T13:24:33;18.10;99.90
19224;DHT22;9746;47.180;9.776;2022-08-19T13:27:02;18.00;99.90
19224;DHT22;9746;47.180;9.776;2022-08-19T13:29:31;18.00;99.90
19224;DHT22;9746;47.180;9.776;2022-08-19T13:32:17;18.00;99.90
19224;DHT22;9746;47.180;9.776;2022-08-19T13:35:02;18.00;99.90
19224;DHT22;9746;47.180;9.776;2022-08-19T13:37:30;18.10;99.90
19224;DHT22;9746;47.180;9.776;2022-08-19T13:40:11;18.00;99.90
19224;DHT22;9746;47.180;9.776;2022-08-19T13:42:42;18.00;99.90
19224;DHT22;9746;47.180;9.776;2022-08-19T13:45:12;18.10;99.90
19224;DHT22;9746;47.180;9.776;2022-08-19T13:47:42;18.00;99.90
19224;DHT22;9746;47.180;9.776;2022-08-19T13:50:15;18.00;99.90
19224;DHT22;9746;47.180;9.776;2022-08-19T13:52:43;18.00;99.90
19224;DHT22;9746;47.180;9.776;2022-08-19T13:55:12;17.90;99.90
19224;DHT22;9746;47.180;9.776;2022-08-19T13:57:41;17.90;99.90
19224;DHT22;9746;47.180;9.776;2022-08-19T14:00:13;17.90;99.90
19224;DHT22;9746;47.180;9.776;2022-08-19T14:02:49;17.80;99.90
19224;DHT22;9746;47.180;9.776;2022-08-19T14:05:20;17.80;99.90
19224;DHT22;9746;47.180;9.776;2022-08-19T14:07:47;17.90;99.90
19224;DHT22;9746;47.180;9.776;2022-08-19T14:10:15;17.80;99.90
19224;DHT22;9746;47.180;9.776;2022-08-19T14:12:43;17.90;99.90
19224;DHT22;9746;47.180;9.776;2022-08-19T14:15:13;17.90;99.90
19224;DHT22;9746;47.180;9.776;2022-08-19T14:17:45;17.90;99.90
19224;DHT22;9746;47.180;9.776;2022-08-19T14:20:15;17.90;99.90
19224;DHT22;9746;47.180;9.776;2022-08-19T14:22:48;17.90;99.90
19224;DHT22;9746;47.180;9.776;2022-08-19T14:25:17;17.90;99.90
19224;DHT22;9746;47.180;9.776;2022-08-19T14:27:46;17.90;99.90
19224;DHT22;9746;47.180;9.776;2022-08-19T14:30:18;17.90;99.90
19224;DHT22;9746;47.180;9.776;2022-08-19T14:32:48;17.90;99.90
19224;DHT22;9746;47.180;9.776;2022-08-19T14:35:16;17.90;99.90
19224;DHT22;9746;47.180;9.776;2022-08-19T14:37:45;17.80;99.90
19224;DHT22;9746;47.180;9.776;2022-08-19T14:40:15;17.80;99.90
19224;DHT22;9746;47.180;9.776;2022-08-19T14:42:43;17.80;99.90
19224;DHT22;9746;47.180;9.776;2022-08-19T14:45:11;17.90;99.90
19224;DHT22;9746;47.180;9.776;2022-08-19T14:47:39;17.90;99.90
19224;DHT22;9746;47.180;9.776;2022-08-19T14:50:10;17.90;99.90
19224;DHT22;9746;47.180;9.776;2022-08-19T14:52:38;17.90;99.90
19224;DHT22;9746;47.180;9.776;2022-08-19T14:55:06;18.00;99.90
19224;DHT22;9746;47.180;9.776;2022-08-19T14:57:34;17.90;99.90
19224;DHT22;9746;47.180;9.776;2022-08-19T15:00:02;17.90;99.90
19224;DHT22;9746;47.180;9.776;2022-08-19T15:02:30;17.90;99.90
19224;DHT22;9746;47.180;9.776;2022-08-19T15:04:57;17.90;99.90
19224;DHT22;9746;47.180;9.776;2022-08-19T15:07:26;17.90;99.90
19224;DHT22;9746;47.180;9.776;2022-08-19T15:09:54;17.90;99.90
19224;DHT22;9746;47.180;9.776;2022-08-19T15:12:21;17.90;99.90
19224;DHT22;9746;47.180;9.776;2022-08-19T15:14:49;17.90;99.90
19224;DHT22;9746;47.180;9.776;2022-08-19T15:17:17;17.90;99.90
19224;DHT22;9746;47.180;9.776;2022-08-19T15:19:44;17.90;99.90
19224;DHT22;9746;47.180;9.776;2022-08-19T15:22:12;17.90;99.90
19224;DHT22;9746;47.180;9.776;2022-08-19T15:24:42;17.90;99.90
19224;DHT22;9746;47.180;9.776;2022-08-19T15:27:11;17.90;99.90
19224;DHT22;9746;47.180;9.776;2022-08-19T15:29:39;17.90;99.90
19224;DHT22;9746;47.180;9.776;2022-08-19T15:32:07;17.90;99.90
19224;DHT22;9746;47.180;9.776;2022-08-19T15:34:34;17.80;99.90
19224;DHT22;9746;47.180;9.776;2022-08-19T15:37:04;17.80;99.90
19224;DHT22;9746;47.180;9.776;2022-08-19T15:39:32;17.80;99.90
19224;DHT22;9746;47.180;9.776;2022-08-19T15:42:01;17.80;99.90
19224;DHT22;9746;47.180;9.776;2022-08-19T15:44:29;17.90;99.90
19224;DHT22;9746;47.180;9.776;2022-08-19T15:46:57;17.90;99.90
19224;DHT22;9746;47.180;9.776;2022-08-19T15:49:24;17.90;99.90
19224;DHT22;9746;47.180;9.776;2022-08-19T15:51:51;17.90;99.90
19224;DHT22;9746;47.180;9.776;2022-08-19T15:54:21;17.90;99.90
19224;DHT22;9746;47.180;9.776;2022-08-19T15:56:51;17.90;99.90
19224;DHT22;9746;47.180;9.776;2022-08-19T15:59:34;17.80;99.90
19224;DHT22;9746;47.180;9.776;2022-08-19T16:02:22;17.80;99.90
19224;DHT22;9746;47.180;9.776;2022-08-19T16:05:10;17.80;99.90
19224;DHT22;9746;47.180;9.776;2022-08-19T16:07:56;17.80;99.90
19224;DHT22;9746;47.180;9.776;2022-08-19T16:10:23;17.80;99.90
19224;DHT22;9746;47.180;9.776;2022-08-19T16:12:51;17.80;99.90
19224;DHT22;9746;47.180;9.776;2022-08-19T16:15:20;17.80;99.90
19224;DHT22;9746;47.180;9.776;2022-08-19T16:17:48;17.70;99.90
19224;DHT22;9746;47.180;9.776;2022-08-19T16:20:15;17.70;99.90
19224;DHT22;9746;47.180;9.776;2022-08-19T16:22:44;17.70;99.90
19224;DHT22;9746;47.180;9.776;2022-08-19T16:25:11;17.70;99.90
19224;DHT22;9746;47.180;9.776;2022-08-19T16:27:40;17.70;99.90
19224;DHT22;9746;47.180;9.776;2022-08-19T16:30:08;17.70;99.90
19224;DHT22;9746;47.180;9.776;2022-08-19T16:32:42;17.70;99.90
19224;DHT22;9746;47.180;9.776;2022-08-19T16:35:09;17.60;99.90
19224;DHT22;9746;47.180;9.776;2022-08-19T16:37:37;17.60;99.90
19224;DHT22;9746;47.180;9.776;2022-08-19T16:40:05;17.60;99.90
19224;DHT22;9746;47.180;9.776;2022-08-19T16:42:34;17.60;99.90
19224;DHT22;9746;47.180;9.776;2022-08-19T16:45:03;17.50;99.90
19224;DHT22;9746;47.180;9.776;2022-08-19T16:47:33;17.50;99.90
19224;DHT22;9746;47.180;9.776;2022-08-19T16:50:03;17.50;99.90
19224;DHT22;9746;47.180;9.776;2022-08-19T16:52:33;17.50;99.90
19224;DHT22;9746;47.180;9.776;2022-08-19T16:55:01;17.30;99.90
19224;DHT22;9746;47.180;9.776;2022-08-19T16:57:29;17.20;99.90
19224;DHT22;9746;47.180;9.776;2022-08-19T16:59:58;17.20;99.90
19224;DHT22;9746;47.180;9.776;2022-08-19T17:02:29;17.10;99.90
19224;DHT22;9746;47.180;9.776;2022-08-19T17:04:59;17.20;99.90
19224;DHT22;9746;47.180;9.776;2022-08-19T17:07:28;17.10;99.90
19224;DHT22;9746;47.180;9.776;2022-08-19T17:09:56;17.20;99.90
19224;DHT22;9746;47.180;9.776;2022-08-19T17:12:23;17.20;99.90
19224;DHT22;9746;47.180;9.776;2022-08-19T17:14:52;17.20;99.90
19224;DHT22;9746;47.180;9.776;2022-08-19T17:17:21;17.20;99.90
19224;DHT22;9746;47.180;9.776;2022-08-19T17:19:49;17.20;99.90
19224;DHT22;9746;47.180;9.776;2022-08-19T17:22:18;17.20;99.90
19224;DHT22;9746;47.180;9.776;2022-08-19T17:24:47;17.30;99.90
19224;DHT22;9746;47.180;9.776;2022-08-19T17:27:14;17.30;99.90
19224;DHT22;9746;47.180;9.776;2022-08-19T17:29:41;17.30;99.90
19224;DHT22;9746;47.180;9.776;2022-08-19T17:32:09;17.30;99.90
19224;DHT22;9746;47.180;9.776;2022-08-19T17:34:36;17.30;99.90
19224;DHT22;9746;47.180;9.776;2022-08-19T17:37:04;17.40;99.90
19224;DHT22;9746;47.180;9.776;2022-08-19T17:39:32;17.30;99.90
19224;DHT22;9746;47.180;9.776;2022-08-19T17:42:01;17.30;99.90
19224;DHT22;9746;47.180;9.776;2022-08-19T17:44:29;17.20;99.90
19224;DHT22;9746;47.180;9.776;2022-08-19T17:46:57;17.10;99.90
19224;DHT22;9746;47.180;9.776;2022-08-19T17:49:25;17.00;99.90
19224;DHT22;9746;47.180;9.776;2022-08-19T17:51:52;17.00;99.90
19224;DHT22;9746;47.180;9.776;2022-08-19T17:54:20;17.00;99.90
19224;DHT22;9746;47.180;9.776;2022-08-19T17:56:47;17.00;99.90
19224;DHT22;9746;47.180;9.776;2022-08-19T17:59:16;17.10;99.90
19224;DHT22;9746;47.180;9.776;2022-08-19T18:01:47;17.10;99.90
19224;DHT22;9746;47.180;9.776;2022-08-19T18:04:14;17.10;99.90
19224;DHT22;9746;47.180;9.776;2022-08-19T18:06:43;17.20;99.90
19224;DHT22;9746;47.180;9.776;2022-08-19T18:09:11;17.20;99.90
19224;DHT22;9746;47.180;9.776;2022-08-19T18:11:38;17.20;99.90
19224;DHT22;9746;47.180;9.776;2022-08-19T18:14:05;17.20;99.90
19224;DHT22;9746;47.180;9.776;2022-08-19T18:16:34;17.10;99.90
19224;DHT22;9746;47.180;9.776;2022-08-19T18:19:06;17.10;99.90
19224;DHT22;9746;47.180;9.776;2022-08-19T18:21:34;17.10;99.90
19224;DHT22;9746;47.180;9.776;2022-08-19T18:24:01;17.00;99.90
19224;DHT22;9746;47.180;9.776;2022-08-19T18:26:29;16.90;99.90
19224;DHT22;9746;47.180;9.776;2022-08-19T18:28:56;16.90;99.90
19224;DHT22;9746;47.180;9.776;2022-08-19T18:31:24;16.90;99.90
19224;DHT22;9746;47.180;9.776;2022-08-19T18:33:52;16.90;99.90
19224;DHT22;9746;47.180;9.776;2022-08-19T18:36:20;16.90;99.90
19224;DHT22;9746;47.180;9.776;2022-08-19T18:38:47;16.90;99.90
19224;DHT22;9746;47.180;9.776;2022-08-19T18:41:32;16.90;99.90
19224;DHT22;9746;47.180;9.776;2022-08-19T18:44:17;16.90;99.90
19224;DHT22;9746;47.180;9.776;2022-08-19T18:47:02;16.90;99.90
19224;DHT22;9746;47.180;9.776;2022-08-19T18:49:48;16.90;99.90
19224;DHT22;9746;47.180;9.776;2022-08-19T18:52:16;16.80;99.90
19224;DHT22;9746;47.180;9.776;2022-08-19T18:54:44;16.80;99.90
19224;DHT22;9746;47.180;9.776;2022-08-19T18:57:13;16.70;99.90
19224;DHT22;9746;47.180;9.776;2022-08-19T18:59:41;16.80;99.90
19224;DHT22;9746;47.180;9.776;2022-08-19T19:02:10;16.80;99.90
19224;DHT22;9746;47.180;9.776;2022-08-19T19:04:39;16.80;99.90
19224;DHT22;9746;47.180;9.776;2022-08-19T19:07:08;16.80;99.90
19224;DHT22;9746;47.180;9.776;2022-08-19T19:09:36;16.90;99.90
19224;DHT22;9746;47.180;9.776;2022-08-19T19:12:06;16.90;99.90
19224;DHT22;9746;47.180;9.776;2022-08-19T19:14:37;17.00;99.90
19224;DHT22;9746;47.180;9.776;2022-08-19T19:17:08;17.00;99.90
19224;DHT22;9746;47.180;9.776;2022-08-19T19:19:39;16.90;99.90
19224;DHT22;9746;47.180;9.776;2022-08-19T19:22:11;16.90;99.90
19224;DHT22;9746;47.180;9.776;2022-08-19T19:24:40;17.00;99.90
19224;DHT22;9746;47.180;9.776;2022-08-19T19:27:10;17.00;99.90
19224;DHT22;9746;47.180;9.776;2022-08-19T19:29:39;17.00;99.90
19224;DHT22;9746;47.180;9.776;2022-08-19T19:32:09;17.10;99.90
19224;DHT22;9746;47.180;9.776;2022-08-19T19:34:38;17.00;99.90
19224;DHT22;9746;47.180;9.776;2022-08-19T19:37:05;16.80;99.90
19224;DHT22;9746;47.180;9.776;2022-08-19T19:39:34;16.80;99.90
19224;DHT22;9746;47.180;9.776;2022-08-19T19:42:06;16.80;99.90
19224;DHT22;9746;47.180;9.776;2022-08-19T19:44:37;16.80;99.90
19224;DHT22;9746;47.180;9.776;2022-08-19T19:47:05;16.80;99.90
19224;DHT22;9746;47.180;9.776;2022-08-19T19:49:32;16.70;99.90
19224;DHT22;9746;47.180;9.776;2022-08-19T19:52:00;16.70;99.90
19224;DHT22;9746;47.180;9.776;2022-08-19T19:54:27;16.80;99.90
19224;DHT22;9746;47.180;9.776;2022-08-19T19:56:56;16.80;99.90
19224;DHT22;9746;47.180;9.776;2022-08-19T19:59:23;16.80;99.90
19224;DHT22;9746;47.180;9.776;2022-08-19T20:01:51;16.80;99.90
19224;DHT22;9746;47.180;9.776;2022-08-19T20:04:18;16.80;99.90
19224;DHT22;9746;47.180;9.776;2022-08-19T20:06:46;16.70;99.90
19224;DHT22;9746;47.180;9.776;2022-08-19T20:09:13;16.60;99.90
19224;DHT22;9746;47.180;9.776;2022-08-19T20:11:42;16.40;99.90
19224;DHT22;9746;47.180;9.776;2022-08-19T20:14:14;16.50;99.90
19224;DHT22;9746;47.180;9.776;2022-08-19T20:16:43;16.50;99.90
19224;DHT22;9746;47.180;9.776;2022-08-19T20:19:13;16.50;99.90
19224;DHT22;9746;47.180;9.776;2022-08-19T20:21:42;16.50;99.90
19224;DHT22;9746;47.180;9.776;2022-08-19T20:24:12;16.50;99.90
19224;DHT22;9746;47.180;9.776;2022-08-19T20:26:43;16.50;99.90
19224;DHT22;9746;47.180;9.776;2022-08-19T20:29:14;16.40;99.90
19224;DHT22;9746;47.180;9.776;2022-08-19T20:31:43;16.30;99.90
19224;DHT22;9746;47.180;9.776;2022-08-19T20:34:11;16.30;99.90
19224;DHT22;9746;47.180;9.776;2022-08-19T20:36:39;16.30;99.90
19224;DHT22;9746;47.180;9.776;2022-08-19T20:39:07;16.30;99.90
19224;DHT22;9746;47.180;9.776;2022-08-19T20:41:34;16.30;99.90
